Time;durP1;ratioP1;P1;durP2;ratioP2;P2;SDS_P1;SDS_P2;PMS_P1;PMS_P2;Temp;Humidity;BMP_temperature;BMP_pressure;BME280_temperature;BME280_humidity;BME280_pressure;Samples;Min_cycle;Max_cycle;Signal;HPM_P1;HPM_P2
2020/12/11 00:01:59;;;;;;;40.40;20.60;;;;;;;0.44;86.33;99893.63;1700994;83;21609;-60
2020/12/11 00:04:27;;;;;;;42.10;20.50;;;;;;;0.41;86.37;99890.02;1645000;85;21171;-60
2020/12/11 00:06:58;;;;;;;42.55;21.37;;;;;;;0.35;86.75;99888.66;1677194;84;21133;-60
2020/12/11 00:09:27;;;;;;;36.68;19.25;;;;;;;0.42;86.58;99876.11;1665894;85;21169;-61
2020/12/11 00:11:55;;;;;;;36.77;19.07;;;;;;;0.41;86.45;99876.63;1682815;85;21242;-61
2020/12/11 00:14:23;;;;;;;39.55;18.77;;;;;;;0.34;86.68;99871.77;1675390;85;21183;-61
2020/12/11 00:16:51;;;;;;;40.50;19.42;;;;;;;0.39;86.71;99869.83;1681549;85;21689;-61
2020/12/11 00:19:19;;;;;;;44.85;20.00;;;;;;;0.49;86.29;99863.05;1682383;85;21601;-60
2020/12/11 00:21:49;;;;;;;39.73;19.95;;;;;;;0.35;86.79;99873.42;1634753;85;21213;-60
2020/12/11 00:24:17;;;;;;;34.20;18.95;;;;;;;0.43;86.62;99867.03;1666932;85;21593;-60
2020/12/11 00:26:45;;;;;;;41.88;20.88;;;;;;;0.49;86.28;99867.06;1647223;85;21640;-60
2020/12/11 00:29:13;;;;;;;39.63;21.00;;;;;;;0.37;86.67;99875.38;1656426;85;21549;-60
2020/12/11 00:31:41;;;;;;;41.75;21.37;;;;;;;0.42;86.62;99876.95;1633449;85;21659;-60
2020/12/11 00:34:09;;;;;;;46.68;20.48;;;;;;;0.46;86.42;99872.80;1678185;85;21641;-61
2020/12/11 00:36:39;;;;;;;42.40;20.37;;;;;;;0.41;86.54;99871.78;1680040;85;21322;-60
2020/12/11 00:39:07;;;;;;;41.92;21.52;;;;;;;0.44;86.48;99862.82;1683320;85;21141;-61
2020/12/11 00:41:40;;;;;;;45.98;20.82;;;;;;;0.50;86.26;99857.98;1645640;86;21580;-60
2020/12/11 00:44:08;;;;;;;45.23;20.75;;;;;;;0.43;86.48;99863.02;1663585;85;21193;-60
2020/12/11 00:46:36;;;;;;;44.50;21.62;;;;;;;0.44;86.51;99864.67;1671304;86;21169;-60
2020/12/11 00:49:05;;;;;;;47.73;23.42;;;;;;;0.49;86.26;99858.20;1644921;86;21325;-61
2020/12/11 00:51:33;;;;;;;46.30;21.60;;;;;;;0.45;86.42;99862.31;1661759;86;21221;-60
2020/12/11 00:54:01;;;;;;;44.20;21.82;;;;;;;0.44;86.49;99858.80;1624342;87;21182;-60
2020/12/11 00:56:29;;;;;;;43.52;22.45;;;;;;;0.56;86.05;99853.68;1614462;86;21213;-60
2020/12/11 00:58:57;;;;;;;44.58;22.02;;;;;;;0.49;86.17;99852.84;1638365;86;21606;-61
2020/12/11 01:01:25;;;;;;;48.33;21.25;;;;;;;0.54;86.04;99856.23;1642809;86;21627;-60
2020/12/11 01:03:53;;;;;;;48.50;23.27;;;;;;;0.60;85.64;99852.75;1684743;84;21165;-61
2020/12/11 01:06:21;;;;;;;44.42;21.10;;;;;;;0.49;85.88;99843.47;1686633;84;21683;-60
2020/12/11 01:08:48;;;;;;;44.73;22.35;;;;;;;0.43;86.12;99846.94;1709238;84;21219;-60
2020/12/11 01:11:16;;;;;;;42.40;22.42;;;;;;;0.54;85.80;99852.21;1683357;84;21475;-61
2020/12/11 01:13:44;;;;;;;45.05;22.30;;;;;;;0.52;85.73;99844.91;1700750;84;21665;-60
2020/12/11 01:16:12;;;;;;;40.60;20.68;;;;;;;0.45;85.90;99845.73;1707392;84;21660;-60
2020/12/11 01:18:40;;;;;;;40.75;22.48;;;;;;;0.54;85.65;99844.17;1668429;84;21137;-61
2020/12/11 01:21:08;;;;;;;46.75;22.40;;;;;;;0.55;85.46;99857.38;1653002;84;21186;-60
2020/12/11 01:23:37;;;;;;;42.70;21.15;;;;;;;0.45;85.74;99859.63;1705284;84;21161;-61
2020/12/11 01:26:09;;;;;;;41.50;20.43;;;;;;;0.50;85.60;99848.61;1703120;84;21161;-60
2020/12/11 01:28:37;;;;;;;43.58;22.77;;;;;;;0.57;85.26;99856.64;1707439;84;21680;-61
2020/12/11 01:31:05;;;;;;;37.28;20.35;;;;;;;0.48;85.50;99852.52;1705675;84;21606;-61
2020/12/11 01:33:33;;;;;;;41.75;20.15;;;;;;;0.49;85.40;99840.28;1652881;85;21168;-61
2020/12/11 01:36:01;;;;;;;39.53;19.80;;;;;;;0.55;85.05;99849.34;1646539;87;21184;-61
2020/12/11 01:38:29;;;;;;;36.55;19.35;;;;;;;0.46;85.18;99835.30;1651184;86;21629;-61
2020/12/11 01:40:59;;;;;;;34.10;19.17;;;;;;;0.53;85.10;99835.34;1617421;86;21202;-61
2020/12/11 01:43:27;;;;;;;36.68;18.70;;;;;;;0.54;84.79;99833.46;1647488;85;21609;-61
2020/12/11 01:45:55;;;;;;;34.00;18.85;;;;;;;0.49;84.99;99830.08;1662936;85;21187;-61
2020/12/11 01:48:24;;;;;;;32.00;19.10;;;;;;;0.45;85.05;99826.98;1686238;85;21293;-61
2020/12/11 01:50:52;;;;;;;34.65;18.10;;;;;;;0.57;84.72;99826.37;1699507;83;21571;-61
2020/12/11 01:53:21;;;;;;;40.85;20.20;;;;;;;0.51;84.74;99834.70;1686417;84;21696;-60
2020/12/11 01:55:51;;;;;;;33.63;18.73;;;;;;;0.43;85.08;99822.84;1679292;85;21761;-60
2020/12/11 01:58:20;;;;;;;35.00;19.95;;;;;;;0.55;84.75;99821.72;1660669;84;21141;-60
2020/12/11 02:00:49;;;;;;;33.98;18.05;;;;;;;0.49;84.79;99824.72;1639932;85;21305;-61
2020/12/11 02:03:18;;;;;;;28.30;16.75;;;;;;;0.48;84.86;99826.57;1648558;85;21146;-61
2020/12/11 02:05:46;;;;;;;38.58;18.85;;;;;;;0.59;84.50;99821.62;1686394;85;21107;-61
2020/12/11 02:08:14;;;;;;;37.83;19.87;;;;;;;0.56;84.48;99829.57;1665651;84;21760;-61
2020/12/11 02:10:46;;;;;;;33.98;18.20;;;;;;;0.45;84.80;99821.62;1660781;85;21119;-60
2020/12/11 02:13:13;;;;;;;30.62;17.30;;;;;;;0.51;84.67;99823.98;1677662;85;21135;-61
2020/12/11 02:15:41;;;;;;;34.25;17.77;;;;;;;0.56;84.41;99822.05;1680189;85;21108;-60
2020/12/11 02:18:09;;;;;;;30.70;17.92;;;;;;;0.47;84.73;99826.25;1642966;85;21588;-60
2020/12/11 02:20:37;;;;;;;35.58;18.32;;;;;;;0.52;84.59;99827.50;1663861;85;21193;-61
2020/12/11 02:23:06;;;;;;;32.33;18.02;;;;;;;0.58;84.27;99826.67;1670289;83;21673;-60
2020/12/11 02:25:33;;;;;;;32.13;17.73;;;;;;;0.55;84.34;99836.46;1693765;83;21604;-60
2020/12/11 02:28:01;;;;;;;29.05;17.35;;;;;;;0.52;84.56;99830.17;1687500;83;21324;-61
2020/12/11 02:30:29;;;;;;;32.35;17.95;;;;;;;0.63;84.15;99833.08;1718769;83;21702;-61
2020/12/11 02:32:57;;;;;;;29.30;16.77;;;;;;;0.57;84.21;99827.18;1708486;83;21654;-61
2020/12/11 02:35:26;;;;;;;29.52;16.90;;;;;;;0.46;84.47;99825.94;1667828;85;21129;-61
2020/12/11 02:37:54;;;;;;;32.45;17.85;;;;;;;0.55;84.27;99831.10;1637220;85;21173;-61
2020/12/11 02:40:22;;;;;;;27.30;15.83;;;;;;;0.59;84.12;99839.05;1720760;83;21133;-61
2020/12/11 02:42:51;;;;;;;28.77;16.62;;;;;;;0.44;84.41;99841.39;1720720;83;21164;-60
2020/12/11 02:45:19;;;;;;;28.23;16.37;;;;;;;0.62;83.97;99846.66;1708989;83;21572;-61
2020/12/11 02:47:47;;;;;;;25.57;16.32;;;;;;;0.61;83.95;99849.86;1647673;85;21597;-61
2020/12/11 02:50:15;;;;;;;30.97;16.55;;;;;;;0.53;84.19;99843.38;1712747;83;21169;-61
2020/12/11 02:52:43;;;;;;;31.40;16.75;;;;;;;0.63;83.86;99837.09;1699917;83;21185;-60
2020/12/11 02:55:10;;;;;;;32.80;18.10;;;;;;;0.68;83.66;99845.84;1660752;85;21165;-61
2020/12/11 02:57:40;;;;;;;24.12;14.53;;;;;;;0.59;83.90;99843.89;1698065;83;21145;-60
2020/12/11 03:00:08;;;;;;;29.00;16.75;;;;;;;0.62;83.81;99850.69;1723002;83;21121;-61
2020/12/11 03:02:36;;;;;;;31.25;17.05;;;;;;;0.69;83.50;99856.36;1687835;85;21137;-61
2020/12/11 03:05:04;;;;;;;33.67;17.70;;;;;;;0.63;83.64;99852.34;1651816;85;21636;-60
2020/12/11 03:07:32;;;;;;;26.97;15.75;;;;;;;0.53;83.96;99842.55;1709737;83;21639;-61
2020/12/11 03:10:00;;;;;;;26.15;14.93;;;;;;;0.61;83.72;99839.65;1722882;83;21181;-60
2020/12/11 03:12:28;;;;;;;26.75;16.60;;;;;;;0.64;83.61;99845.96;1668003;85;21695;-60
2020/12/11 03:14:56;;;;;;;28.70;16.17;;;;;;;0.53;83.83;99839.36;1645682;85;21683;-60
2020/12/11 03:17:24;;;;;;;25.77;15.72;;;;;;;0.60;83.78;99836.68;1681614;83;21211;-60
2020/12/11 03:19:52;;;;;;;27.32;15.43;;;;;;;0.63;83.42;99830.40;1722848;83;21141;-61
2020/12/11 03:22:20;;;;;;;28.95;16.60;;;;;;;0.58;83.66;99846.25;1673133;85;21177;-60
2020/12/11 03:24:48;;;;;;;26.70;15.32;;;;;;;0.52;83.82;99834.19;1649234;85;21183;-60
2020/12/11 03:27:16;;;;;;;28.62;16.32;;;;;;;0.65;83.41;99832.86;1690696;83;21580;-61
2020/12/11 03:29:44;;;;;;;31.87;17.85;;;;;;;0.61;83.40;99843.67;1688553;83;21581;-61
2020/12/11 03:32:12;;;;;;;25.97;14.87;;;;;;;0.48;83.78;99831.92;1697312;83;21197;-62
2020/12/11 03:34:41;;;;;;;27.30;15.78;;;;;;;0.52;83.66;99833.68;1720844;83;21601;-61
2020/12/11 03:37:08;;;;;;;31.73;16.85;;;;;;;0.57;83.40;99844.59;1710999;83;21173;-60
2020/12/11 03:39:36;;;;;;;27.62;16.75;;;;;;;0.52;83.54;99836.36;1696471;83;21137;-61
2020/12/11 03:42:04;;;;;;;22.52;14.10;;;;;;;0.52;83.69;99838.21;1664557;83;21193;-60
2020/12/11 03:44:32;;;;;;;25.97;15.18;;;;;;;0.58;83.28;99839.55;1693881;83;21561;-60
2020/12/11 03:47:00;;;;;;;27.98;16.50;;;;;;;0.48;83.60;99839.13;1644097;83;21561;-60
2020/12/11 03:49:28;;;;;;;86.47;46.70;;;;;;;0.42;83.85;99840.79;1704988;83;21989;-61
2020/12/11 03:51:56;;;;;;;78.22;41.85;;;;;;;0.55;83.51;99845.33;1705820;83;21323;-61
2020/12/11 03:54:24;;;;;;;77.97;48.73;;;;;;;0.53;83.41;99837.19;1691973;83;21324;-61
2020/12/11 03:56:53;;;;;;;32.85;20.55;;;;;;;0.45;83.65;99835.53;1662941;83;21142;-61
2020/12/11 03:59:21;;;;;;;33.13;16.10;;;;;;;0.46;83.68;99841.20;1668517;83;21145;-60
2020/12/11 04:01:49;;;;;;;26.87;15.80;;;;;;;0.55;83.36;99839.14;1660587;83;21747;-60
2020/12/11 04:04:18;;;;;;;25.88;14.63;;;;;;;0.46;83.56;99837.19;1690199;83;21611;-61
2020/12/11 04:06:46;;;;;;;24.65;15.58;;;;;;;0.41;83.88;99840.98;1716804;83;21680;-60
2020/12/11 04:09:13;;;;;;;24.63;15.20;;;;;;;0.46;83.66;99831.29;1684322;83;21589;-61
2020/12/11 04:11:41;;;;;;;28.85;15.72;;;;;;;0.49;83.46;99841.63;1713786;83;21605;-60
2020/12/11 04:14:09;;;;;;;25.97;15.30;;;;;;;0.39;83.79;99843.84;1690023;83;21597;-61
2020/12/11 04:16:37;;;;;;;25.40;15.25;;;;;;;0.44;83.64;99846.75;1718740;83;21604;-61
2020/12/11 04:19:05;;;;;;;26.23;15.35;;;;;;;0.51;83.42;99841.40;1686983;83;21307;-61
2020/12/11 04:21:34;;;;;;;28.45;15.05;;;;;;;0.40;83.63;99842.00;1718460;83;21185;-60
2020/12/11 04:24:02;;;;;;;28.87;15.68;;;;;;;0.36;83.79;99842.09;1718645;83;21134;-60
2020/12/11 04:26:30;;;;;;;28.95;16.70;;;;;;;0.43;83.50;99834.37;1704164;83;21675;-61
2020/12/11 04:28:58;;;;;;;26.73;16.27;;;;;;;0.40;83.48;99837.47;1689643;83;21169;-60
2020/12/11 04:31:25;;;;;;;24.18;15.18;;;;;;;0.32;83.72;99841.67;1668235;83;21173;-60
2020/12/11 04:33:53;;;;;;;23.57;14.50;;;;;;;0.35;83.69;99846.65;1688276;83;21142;-60
2020/12/11 04:36:21;;;;;;;24.43;15.20;;;;;;;0.40;83.47;99844.16;1707854;83;21287;-61
2020/12/11 04:38:49;;;;;;;27.05;15.68;;;;;;;0.29;83.74;99842.08;1691396;83;21291;-61
2020/12/11 04:41:20;;;;;;;27.20;14.78;;;;;;;0.30;83.88;99849.60;1690592;83;21169;-60
2020/12/11 04:43:50;;;;;;;28.42;15.28;;;;;;;0.38;83.51;99843.56;1681234;84;21195;-60
2020/12/11 04:46:18;;;;;;;25.35;16.05;;;;;;;0.32;83.60;99853.72;1686543;84;21149;-60
2020/12/11 04:48:46;;;;;;;28.10;14.78;;;;;;;0.25;83.79;99848.86;1688121;84;21154;-60
2020/12/11 04:51:14;;;;;;;29.27;15.90;;;;;;;0.32;83.58;99863.63;1689229;84;21138;-61
2020/12/11 04:53:43;;;;;;;26.85;15.80;;;;;;;0.35;83.31;99862.71;1705660;84;21647;-61
2020/12/11 04:56:11;;;;;;;25.95;14.55;;;;;;;0.26;83.63;99866.59;1671115;84;21146;-61
2020/12/11 04:58:39;;;;;;;25.68;14.40;;;;;;;0.29;83.58;99868.03;1680164;84;21173;-60
2020/12/11 05:01:07;;;;;;;28.00;15.98;;;;;;;0.37;83.20;99862.49;1686642;84;21162;-60
2020/12/11 05:03:35;;;;;;;26.25;14.75;;;;;;;0.28;83.35;99869.08;1684501;84;21587;-60
2020/12/11 05:06:03;;;;;;;23.87;13.85;;;;;;;0.18;83.62;99865.42;1707260;84;21287;-61
2020/12/11 05:08:32;;;;;;;26.82;15.60;;;;;;;0.27;83.36;99867.42;1709255;84;21319;-62
2020/12/11 05:10:59;;;;;;;27.50;15.58;;;;;;;0.26;83.26;99858.55;1689291;84;21145;-61
2020/12/11 05:13:27;;;;;;;26.52;14.28;;;;;;;0.18;83.46;99865.42;1672030;84;21192;-61
2020/12/11 05:16:15;;;;;;;23.40;13.20;;;;;;;0.24;83.27;99861.13;1682080;84;21161;-62
2020/12/11 05:18:43;;;;;;;30.32;14.63;;;;;;;0.25;83.05;99860.91;1665913;84;21207;-61
2020/12/11 05:21:21;;;;;;;25.80;14.40;;;;;;;0.15;83.37;99863.16;1686894;84;21625;-62
2020/12/11 05:24:04;;;;;;;25.20;13.45;;;;;;;0.11;83.51;99863.78;1700251;82;21193;-61
2020/12/11 05:26:34;;;;;;;23.95;13.78;;;;;;;0.21;82.96;99870.91;1657126;84;21565;-62
2020/12/11 05:29:03;;;;;;;28.95;15.68;;;;;;;0.13;82.96;99869.74;1664099;86;21194;-61
2020/12/11 05:31:31;;;;;;;27.98;13.98;;;;;;;0.04;83.13;99873.09;1655396;86;21597;-61
2020/12/11 05:34:13;;;;;;;25.90;13.95;;;;;;;0.11;82.87;99878.50;1621554;87;21197;-62
2020/12/11 05:36:50;;;;;;;30.72;14.73;;;;;;;0.06;82.73;99876.42;1700863;84;21169;-61
2020/12/11 05:39:32;;;;;;;26.33;15.45;;;;;;;-0.01;82.83;99874.23;1709271;84;21625;-61
2020/12/11 05:42:01;;;;;;;25.82;13.78;;;;;;;0.03;82.82;99880.01;1700989;83;21193;-61
2020/12/11 05:44:33;;;;;;;25.50;14.68;;;;;;;0.03;82.47;99890.72;1682394;83;21543;-62
2020/12/11 05:47:22;;;;;;;27.87;13.88;;;;;;;-0.05;82.68;99883.17;1719596;83;21650;-61
2020/12/11 05:49:51;;;;;;;23.80;13.13;;;;;;;-0.06;82.48;99879.34;1695035;83;21671;-61
2020/12/11 05:52:22;;;;;;;26.00;14.83;;;;;;;0.04;82.25;99887.82;1719279;83;21177;-61
2020/12/11 05:54:54;;;;;;;26.77;14.73;;;;;;;-0.08;82.17;99884.91;1693977;85;21161;-62
2020/12/11 05:57:23;;;;;;;28.32;14.73;;;;;;;-0.14;82.22;99887.53;1704343;82;21178;-61
2020/12/11 05:59:51;;;;;;;26.68;13.90;;;;;;;-0.01;81.80;99879.59;1722923;83;21593;-61
2020/12/11 06:02:20;;;;;;;26.80;14.30;;;;;;;-0.07;81.96;99892.41;1671932;83;21201;-61
2020/12/11 06:04:49;;;;;;;28.62;13.93;;;;;;;-0.22;82.06;99891.73;1712644;83;21172;-61
2020/12/11 06:07:17;;;;;;;24.90;13.65;;;;;;;-0.12;81.94;99893.53;1692920;83;21228;-63
2020/12/11 06:09:45;;;;;;;26.10;13.62;;;;;;;-0.12;81.86;99893.02;1703718;83;21153;-61
2020/12/11 06:12:13;;;;;;;26.50;14.43;;;;;;;-0.25;81.89;99886.25;1694410;83;21203;-61
2020/12/11 06:14:50;;;;;;;24.32;13.05;;;;;;;-0.23;81.64;99887.41;1722854;83;21105;-61
2020/12/11 06:17:21;;;;;;;24.02;13.95;;;;;;;-0.22;81.34;99893.08;1692906;83;21121;-62
2020/12/11 06:19:49;;;;;;;23.15;13.53;;;;;;;-0.30;81.71;99895.91;1718894;83;21153;-61
2020/12/11 06:22:17;;;;;;;28.83;14.83;;;;;;;-0.30;81.54;99895.40;1720470;83;21156;-61
2020/12/11 06:24:45;;;;;;;25.05;13.13;;;;;;;-0.27;81.35;99902.20;1648527;83;21165;-61
2020/12/11 06:27:13;;;;;;;22.35;13.60;;;;;;;-0.39;80.97;99905.12;1721000;83;21153;-61
2020/12/11 06:29:41;;;;;;;24.43;12.98;;;;;;;-0.36;80.86;99908.74;1696300;83;21126;-61
2020/12/11 06:32:10;;;;;;;25.62;14.53;;;;;;;-0.32;80.50;99908.13;1709102;83;21177;-61
2020/12/11 06:34:38;;;;;;;20.85;12.70;;;;;;;-0.50;80.63;99899.82;1720855;83;21288;-61
2020/12/11 06:37:07;;;;;;;25.12;14.13;;;;;;;-0.49;80.04;99900.11;1713715;83;21264;-62
2020/12/11 06:39:45;;;;;;;26.15;13.32;;;;;;;-0.49;80.46;99910.81;1690634;83;21659;-61
2020/12/11 06:42:38;;;;;;;25.17;14.45;;;;;;;-0.55;80.68;99904.91;1693300;83;21201;-61
2020/12/11 06:45:23;;;;;;;29.40;15.18;;;;;;;-0.50;80.60;99899.82;1685798;85;21173;-61
2020/12/11 06:47:56;;;;;;;25.57;13.75;;;;;;;-0.60;80.50;99896.64;1657547;85;21544;-61
2020/12/11 06:50:31;;;;;;;25.75;14.00;;;;;;;-0.70;80.77;99898.34;1700345;83;21121;-61
2020/12/11 06:52:59;;;;;;;26.97;14.60;;;;;;;-0.70;80.90;99891.66;1704592;83;21173;-61
2020/12/11 06:55:49;;;;;;;27.65;15.10;;;;;;;-0.67;81.24;99895.77;1669225;85;21185;-61
2020/12/11 06:58:21;;;;;;;28.77;15.38;;;;;;;-0.65;81.42;99897.76;1703979;83;21168;-61
2020/12/11 07:00:53;;;;;;;32.55;17.32;;;;;;;-0.52;81.26;99897.33;1717975;83;21169;-61
2020/12/11 07:03:26;;;;;;;27.50;15.05;;;;;;;-0.60;81.47;99900.14;1663190;85;21170;-61
2020/12/11 07:06:02;;;;;;;25.48;15.03;;;;;;;-0.64;81.12;99898.08;1713401;83;21311;-61
2020/12/11 07:08:30;;;;;;;25.17;14.13;;;;;;;-0.60;80.43;99896.64;1699515;83;21604;-61
2020/12/11 07:11:07;;;;;;;26.02;15.20;;;;;;;-0.72;80.62;99894.22;1633969;86;21192;-61
2020/12/11 07:13:36;;;;;;;25.48;14.50;;;;;;;-0.70;80.31;99890.82;1692516;85;21181;-61
2020/12/11 07:16:04;;;;;;;29.20;15.35;;;;;;;-0.70;80.11;99895.66;1663065;85;21604;-61
2020/12/11 07:18:33;;;;;;;28.27;15.08;;;;;;;-0.76;80.58;99892.95;1693125;83;21207;-61
2020/12/11 07:21:01;;;;;;;23.73;15.13;;;;;;;-0.66;80.47;99888.08;1633844;86;21172;-61
2020/12/11 07:23:30;;;;;;;26.68;15.32;;;;;;;-0.77;80.41;99884.61;1692369;85;21311;-61
2020/12/11 07:25:58;;;;;;;24.65;14.53;;;;;;;-0.81;80.11;99875.32;1659460;85;21200;-61
2020/12/11 07:28:25;;;;;;;25.12;14.78;;;;;;;-0.82;79.91;99881.20;1679144;83;21182;-63
2020/12/11 07:30:53;;;;;;;31.70;15.93;;;;;;;-0.81;80.21;99873.98;1675023;83;21691;-62
2020/12/11 07:33:21;;;;;;;30.43;16.17;;;;;;;-0.87;80.52;99880.95;1696906;83;21538;-62
2020/12/11 07:35:50;;;;;;;29.20;17.37;;;;;;;-0.85;80.69;99879.42;1703968;83;21731;-63
2020/12/11 07:38:19;;;;;;;27.13;14.75;;;;;;;-0.89;80.74;99873.64;1719233;83;21726;-62
2020/12/11 07:40:56;;;;;;;26.60;15.85;;;;;;;-0.90;80.52;99874.66;1684863;83;21216;-63
2020/12/11 07:43:24;;;;;;;29.20;17.95;;;;;;;-0.93;80.66;99871.55;1696208;83;21330;-63
2020/12/11 07:45:53;;;;;;;27.10;15.68;;;;;;;-0.93;80.46;99871.05;1661474;85;21161;-63
2020/12/11 07:48:21;;;;;;;26.10;14.83;;;;;;;-0.97;80.21;99869.78;1692318;84;21173;-65
2020/12/11 07:50:49;;;;;;;25.68;15.13;;;;;;;-1.01;80.31;99880.02;1706842;83;21614;-63
2020/12/11 07:53:18;;;;;;;28.75;16.10;;;;;;;-1.07;80.15;99882.14;1717806;83;21152;-65
2020/12/11 07:55:45;;;;;;;26.95;15.93;;;;;;;-1.07;80.38;99881.31;1706374;83;21576;-65
2020/12/11 07:58:14;;;;;;;27.95;16.75;;;;;;;-1.03;80.33;99880.71;1700746;83;21190;-62
2020/12/11 08:00:42;;;;;;;27.10;13.32;;;;;;;-1.04;80.33;99885.77;1710313;83;21600;-63
2020/12/11 08:03:10;;;;;;;28.07;16.48;;;;;;;-1.01;80.38;99887.21;1722863;83;21616;-63
2020/12/11 08:05:39;;;;;;;27.62;16.17;;;;;;;-1.03;80.36;99882.05;1703284;82;21577;-61
2020/12/11 08:08:07;;;;;;;27.27;16.73;;;;;;;-1.05;80.14;99891.28;1723023;83;21604;-61
2020/12/11 08:10:39;;;;;;;28.52;16.20;;;;;;;-1.06;80.01;99890.45;1699690;83;21543;-63
2020/12/11 08:13:15;;;;;;;31.77;18.23;;;;;;;-1.13;80.04;99894.92;1692212;85;21169;-62
2020/12/11 08:15:45;;;;;;;28.42;17.07;;;;;;;-1.14;79.81;99889.28;1693416;83;21175;-62
2020/12/11 08:18:21;;;;;;;27.98;15.90;;;;;;;-1.09;79.73;99884.67;1693939;83;21183;-62
2020/12/11 08:20:56;;;;;;;30.05;16.07;;;;;;;-1.10;79.32;99897.73;1723253;83;21533;-62
2020/12/11 08:23:40;;;;;;;23.65;14.87;;;;;;;-1.18;78.97;99896.02;1720753;82;21186;-63
2020/12/11 08:26:17;;;;;;;33.42;16.80;;;;;;;-1.20;79.12;99895.88;1704858;83;21160;-61
2020/12/11 08:28:47;;;;;;;33.85;16.90;;;;;;;-1.26;78.85;99900.15;1712781;83;21180;-62
2020/12/11 08:31:24;;;;;;;30.08;17.37;;;;;;;-1.30;78.34;99891.37;1698618;83;21156;-62
2020/12/11 08:34:02;;;;;;;35.48;17.37;;;;;;;-1.34;77.97;99895.44;1713096;83;21169;-62
2020/12/11 08:36:31;;;;;;;38.90;21.77;;;;;;;-1.40;78.47;99905.55;1705196;83;21174;-62
2020/12/11 08:39:24;;;;;;;35.10;23.20;;;;;;;-1.55;78.33;99902.94;1705981;83;21161;-62
2020/12/11 08:50:13;;;;;;;30.27;16.25;;;;;;;-1.58;78.96;99887.30;1722881;83;21208;-61
2020/12/11 08:52:39;;;;;;;36.30;20.35;;;;;;;-1.57;79.13;99883.62;1720262;83;21205;-61
2020/12/11 08:55:07;;;;;;;33.65;19.27;;;;;;;-1.59;78.95;99880.30;1658266;86;21192;-62
2020/12/11 08:57:35;;;;;;;31.12;19.27;;;;;;;-1.63;78.71;99879.86;1719220;83;21564;-62
2020/12/11 09:00:04;;;;;;;36.48;18.82;;;;;;;-1.67;78.76;99887.13;1714569;83;21153;-62
2020/12/11 09:02:31;;;;;;;33.30;19.57;;;;;;;-1.68;78.84;99874.28;1709045;83;21204;-60
2020/12/11 09:05:00;;;;;;;34.38;17.20;;;;;;;-1.70;78.69;99882.97;1706811;83;21189;-61
2020/12/11 09:07:29;;;;;;;34.15;19.37;;;;;;;-1.72;78.90;99881.01;1711726;83;21608;-61
2020/12/11 09:09:57;;;;;;;30.17;18.27;;;;;;;-1.71;79.15;99881.34;1712932;83;21604;-66
2020/12/11 09:12:26;;;;;;;36.17;21.33;;;;;;;-1.73;79.28;99878.52;1693204;83;21165;-61
2020/12/11 09:14:55;;;;;;;33.60;19.60;;;;;;;-1.73;79.17;99871.84;1713026;83;21125;-61
2020/12/11 09:17:24;;;;;;;42.00;20.15;;;;;;;-1.71;78.71;99875.16;1707313;83;21187;-61
2020/12/11 09:19:52;;;;;;;37.80;22.50;;;;;;;-1.72;78.60;99866.33;1708342;83;21722;-62
2020/12/11 09:22:20;;;;;;;38.70;20.65;;;;;;;-1.65;78.80;99874.39;1715512;83;21165;-61
2020/12/11 09:24:49;;;;;;;35.78;22.25;;;;;;;-1.68;78.97;99872.11;1704439;83;21192;-61
2020/12/11 09:27:18;;;;;;;30.60;20.08;;;;;;;-1.68;78.56;99872.11;1699681;83;21189;-61
2020/12/11 09:29:48;;;;;;;33.85;20.60;;;;;;;-1.66;78.58;99864.73;1717501;83;21581;-62
2020/12/11 09:32:29;;;;;;;33.78;22.40;;;;;;;-1.67;78.83;99870.60;1708030;83;21161;-61
2020/12/11 09:34:48;;;;;;;31.52;17.27;;;;;;;-1.64;78.88;99868.88;1694569;83;21648;-61
2020/12/11 09:37:17;;;;;;;37.65;20.40;;;;;;;-1.63;78.37;99867.84;1677565;83;21161;-62
2020/12/11 09:39:45;;;;;;;29.70;18.45;;;;;;;-1.62;78.69;99859.33;1721434;83;21330;-62
2020/12/11 09:42:45;;;;;;;33.10;19.90;;;;;;;-1.62;78.93;99864.67;1721505;83;21210;-63
2020/12/11 09:47:42;;;;;;;31.20;21.02;;;;;;;-1.59;78.66;99853.61;1791797;79;28372;-59
2020/12/11 09:53:04;;;;;;;31.70;19.42;;;;;;;-1.43;77.42;99840.52;1763907;80;21211;-59
2020/12/11 09:55:31;;;;;;;34.08;19.57;;;;;;;-1.53;77.47;99837.67;1761157;80;21759;-61
2020/12/11 09:57:55;;;;;;;35.98;20.20;;;;;;;-1.57;77.85;99837.73;1785776;80;21194;-61
2020/12/11 10:00:26;;;;;;;32.20;19.57;;;;;;;-1.55;78.28;99838.87;1764529;81;21967;-61
2020/12/11 10:02:59;;;;;;;31.60;18.90;;;;;;;-1.53;78.26;99839.02;1762817;80;21589;-62
2020/12/11 10:05:27;;;;;;;37.40;19.90;;;;;;;-1.52;78.38;99839.31;1766156;80;21604;-62
2020/12/11 10:07:57;;;;;;;33.55;20.68;;;;;;;-1.51;78.78;99834.30;1763987;80;21564;-61
2020/12/11 10:10:26;;;;;;;33.88;18.87;;;;;;;-1.54;78.25;99836.02;1764470;80;21283;-61
2020/12/11 10:12:54;;;;;;;28.77;17.23;;;;;;;-1.58;77.89;99837.41;1762136;80;21604;-61
2020/12/11 10:15:22;;;;;;;31.15;19.52;;;;;;;-1.64;77.71;99847.53;1762267;81;21134;-61
2020/12/11 10:17:50;;;;;;;35.38;20.72;;;;;;;-1.70;77.72;99833.59;1767924;80;21630;-61
2020/12/11 10:20:19;;;;;;;31.10;19.85;;;;;;;-1.68;78.00;99830.74;1719039;83;21138;-62
2020/12/11 10:22:48;;;;;;;28.42;18.45;;;;;;;-1.71;77.85;99832.46;1711115;83;21145;-61
2020/12/11 10:25:17;;;;;;;34.35;19.57;;;;;;;-1.71;78.22;99833.29;1703012;83;21538;-61
2020/12/11 10:27:45;;;;;;;33.00;19.77;;;;;;;-1.66;78.36;99823.36;1729226;81;21588;-61
2020/12/11 10:30:13;;;;;;;33.67;20.20;;;;;;;-1.64;78.52;99830.18;1738268;81;21165;-61
2020/12/11 10:32:40;;;;;;;35.68;20.43;;;;;;;-1.59;78.74;99823.73;1731328;81;21185;-60
2020/12/11 10:35:09;;;;;;;33.65;20.15;;;;;;;-1.58;78.53;99815.23;1733764;81;21154;-61
2020/12/11 10:37:36;;;;;;;36.20;20.85;;;;;;;-1.62;78.54;99816.12;1729687;81;21141;-60
2020/12/11 10:40:05;;;;;;;37.80;20.72;;;;;;;-1.63;78.49;99812.32;1729602;83;21169;-61
2020/12/11 10:42:33;;;;;;;30.35;18.73;;;;;;;-1.67;78.15;99813.72;1728712;83;21185;-62
2020/12/11 10:45:00;;;;;;;34.35;20.27;;;;;;;-1.69;78.21;99807.22;1728740;83;21164;-61
2020/12/11 10:47:29;;;;;;;36.85;20.90;;;;;;;-1.72;78.02;99801.44;1728421;82;21188;-59
2020/12/11 10:49:58;;;;;;;33.70;20.00;;;;;;;-1.73;78.08;99800.61;1723621;82;21162;-60
2020/12/11 10:52:26;;;;;;;34.45;19.02;;;;;;;-1.78;78.35;99810.22;1724023;82;21199;-59
2020/12/11 10:54:55;;;;;;;33.73;19.62;;;;;;;-1.84;78.04;99822.46;1694969;83;21181;-60
2020/12/11 10:57:23;;;;;;;30.20;18.85;;;;;;;-1.87;77.78;99816.68;1723141;82;21186;-60
2020/12/11 10:59:51;;;;;;;36.08;19.85;;;;;;;-1.92;77.82;99811.11;1721018;83;21215;-60
2020/12/11 11:02:19;;;;;;;30.25;18.67;;;;;;;-1.96;78.03;99813.33;1721472;82;21114;-60
2020/12/11 11:04:48;;;;;;;30.68;18.90;;;;;;;-2.03;78.26;99807.09;1722657;83;21158;-60
2020/12/11 11:07:21;;;;;;;32.20;19.00;;;;;;;-2.04;78.32;99808.09;1722230;82;21157;-60
2020/12/11 11:12:30;;;;;;;30.72;17.80;;;;;;;-1.99;78.59;99812.88;1695718;83;21675;-61
2020/12/11 11:20:43;;;;;;;32.30;18.92;;;;;;;-2.07;78.95;99795.14;1705642;82;21156;-60
2020/12/11 11:23:09;;;;;;;33.08;19.55;;;;;;;-2.08;79.12;99810.83;1719104;83;21194;-60
2020/12/11 11:25:50;;;;;;;34.67;19.98;;;;;;;-2.08;78.55;99806.31;1720560;83;21194;-61
2020/12/11 11:28:07;;;;;;;32.90;19.57;;;;;;;-2.11;78.81;99805.36;1727925;82;21158;-60
2020/12/11 11:30:35;;;;;;;31.80;19.52;;;;;;;-2.16;78.55;99801.09;1720747;83;21296;-60
2020/12/11 11:33:03;;;;;;;31.45;18.40;;;;;;;-2.15;79.03;99796.59;1720564;83;21215;-60
2020/12/11 11:35:31;;;;;;;35.55;20.95;;;;;;;-2.15;78.77;99800.59;1705884;82;21129;-59
2020/12/11 11:37:59;;;;;;;27.60;16.75;;;;;;;-2.19;78.65;99797.97;1748279;82;21153;-60
2020/12/11 11:40:27;;;;;;;33.30;19.20;;;;;;;-2.20;78.71;99789.17;1743433;82;21161;-60
2020/12/11 11:42:55;;;;;;;35.10;20.35;;;;;;;-2.19;78.94;99788.64;1678443;83;21201;-60
2020/12/11 11:45:26;;;;;;;32.63;20.02;;;;;;;-2.19;78.98;99788.64;1691863;83;21660;-59
2020/12/11 11:47:56;;;;;;;35.65;20.32;;;;;;;-2.20;79.13;99791.02;1658462;85;21354;-60
2020/12/11 11:53:10;;;;;;;36.63;19.67;;;;;;;-2.17;79.36;99792.80;1680557;83;21193;-60
2020/12/11 11:55:34;;;;;;;39.08;20.75;;;;;;;-2.15;79.24;99782.75;1710999;83;21300;-60
2020/12/11 11:59:12;;;;;;;33.13;19.50;;;;;;;-2.11;78.99;99773.86;1767046;79;22949;-59